Terminal Aerodrome Forecast
Issued by NWS

Home | Current Version | Previous Version | Text Only | Print | Product List | Glossary On
Versions: 1 2 3 4 5 6 7 8 9 10 11 12
000
FTUS46 KHNX 291140
TAFBFL
TAF
KBFL 291140Z 2912/3012 VRB04KT P6SM BKN250
     FM292100 30010KT P6SM SCT250
      TEMPO 2923/3002 32013G19KT
     FM300600 35007KT P6SM FEW060=

USA.gov is the U.S. government's official web portal to all federal, state and local government web resources and services.